Time;durP1;ratioP1;P1;durP2;ratioP2;P2;SDS_P1;SDS_P2;PMS_P1;PMS_P2;Temp;Humidity;BMP_temperature;BMP_pressure;BME280_temperature;BME280_humidity;BME280_pressure;Samples;Min_cycle;Max_cycle;Signal;HPM_P1;HPM_P2
2021/05/18 00:00:37;;;;;;;15.48;8.98;;;10.50;90.50;;;;;;5042960;28;20033;-58
2021/05/18 00:03:04;;;;;;;13.38;8.77;;;10.50;90.50;;;;;;5045868;28;20040;-58
2021/05/18 00:05:31;;;;;;;14.88;8.73;;;10.50;90.60;;;;;;5080656;28;20048;-54
2021/05/18 00:08:01;;;;;;;15.63;9.27;;;10.40;90.50;;;;;;5075838;28;20083;-53
2021/05/18 00:13:16;;;;;;;12.43;8.55;;;10.40;90.60;;;;;;5064297;28;20457;-51
2021/05/18 00:15:43;;;;;;;13.68;9.00;;;10.40;90.60;;;;;;5072325;28;20127;-54
2021/05/18 00:18:10;;;;;;;12.15;9.30;;;10.30;90.60;;;;;;5053992;28;20040;-56
2021/05/18 00:20:54;;;;;;;14.55;9.30;;;10.20;90.60;;;;;;5069325;28;20048;-55
2021/05/18 00:23:21;;;;;;;16.23;10.00;;;10.20;90.80;;;;;;5074498;28;20032;-55
2021/05/18 00:25:47;;;;;;;16.02;9.48;;;10.20;90.80;;;;;;5070438;28;20044;-53
2021/05/18 00:28:13;;;;;;;16.20;9.57;;;10.10;90.80;;;;;;5073140;28;20106;-57
2021/05/18 00:30:40;;;;;;;15.70;9.15;;;10.10;90.80;;;;;;5053222;28;20048;-57
2021/05/18 00:33:16;;;;;;;17.52;9.25;;;10.10;90.90;;;;;;5035708;28;20059;-56
2021/05/18 00:35:43;;;;;;;16.52;8.75;;;10.00;91.00;;;;;;5068361;28;20048;-54
2021/05/18 00:38:10;;;;;;;14.20;9.05;;;10.00;91.00;;;;;;5055187;28;20037;-56
2021/05/18 00:40:36;;;;;;;16.02;9.10;;;9.90;91.00;;;;;;5070936;28;20160;-55
2021/05/18 00:43:05;;;;;;;16.10;9.45;;;9.90;91.10;;;;;;5072672;28;20090;-56
2021/05/18 00:45:34;;;;;;;16.33;9.43;;;9.90;91.10;;;;;;5070855;28;20044;-56
2021/05/18 00:48:02;;;;;;;13.15;9.50;;;9.80;91.10;;;;;;5071345;28;20047;-56
2021/05/18 00:50:28;;;;;;;15.23;9.25;;;9.80;91.20;;;;;;5085209;28;20052;-56
2021/05/18 00:52:55;;;;;;;15.35;9.52;;;9.80;91.20;;;;;;5073501;28;20477;-58
2021/05/18 00:55:50;;;;;;;16.25;10.38;;;9.70;91.40;;;;;;5069792;28;20044;-54
2021/05/18 01:00:58;;;;;;;16.75;10.32;;;9.70;91.40;;;;;;5067507;28;20041;-52
2021/05/18 01:03:25;;;;;;;15.98;9.80;;;9.60;91.40;;;;;;5057397;28;20048;-54
2021/05/18 01:08:36;;;;;;;19.48;10.93;;;9.50;91.50;;;;;;5076179;28;20044;-55
2021/05/18 01:11:03;;;;;;;15.63;10.77;;;9.50;91.60;;;;;;5065994;28;20049;-55
2021/05/18 01:13:31;;;;;;;19.92;11.35;;;9.50;91.60;;;;;;5077511;28;20055;-56
2021/05/18 01:15:57;;;;;;;17.63;11.95;;;9.40;91.70;;;;;;5055841;28;20420;-56
2021/05/18 01:18:23;;;;;;;16.02;11.45;;;9.40;91.80;;;;;;5063211;28;20029;-55
2021/05/18 01:20:58;;;;;;;18.65;11.10;;;9.30;91.80;;;;;;5069590;28;20045;-56
2021/05/18 01:23:24;;;;;;;18.38;11.60;;;9.30;91.80;;;;;;5046389;28;20037;-56
2021/05/18 01:25:52;;;;;;;19.98;11.45;;;9.30;91.90;;;;;;5074007;28;20047;-57
2021/05/18 01:28:18;;;;;;;18.10;10.63;;;9.30;92.00;;;;;;5064440;28;20040;-56
2021/05/18 01:30:45;;;;;;;20.95;12.25;;;9.30;92.20;;;;;;5081265;28;20052;-56
2021/05/18 01:33:11;;;;;;;17.75;11.48;;;9.30;92.10;;;;;;5076486;28;20057;-56
2021/05/18 01:35:36;;;;;;;20.27;12.35;;;9.20;92.10;;;;;;5079397;28;20069;-55
2021/05/18 01:38:05;;;;;;;17.33;11.15;;;9.10;92.10;;;;;;5079617;28;20048;-56
2021/05/18 01:43:14;;;;;;;19.85;11.57;;;9.10;92.20;;;;;;5073810;28;20056;-56
2021/05/18 01:45:42;;;;;;;19.92;12.18;;;9.10;92.20;;;;;;5073825;28;20048;-56
2021/05/18 01:48:15;;;;;;;19.90;12.77;;;9.00;92.40;;;;;;5073702;28;20048;-55
2021/05/18 01:50:44;;;;;;;19.38;11.70;;;9.00;92.20;;;;;;5072942;28;20047;-56
2021/05/18 01:53:11;;;;;;;17.25;11.75;;;9.00;92.20;;;;;;5062462;28;20098;-56
2021/05/18 01:55:42;;;;;;;18.75;11.75;;;9.00;92.30;;;;;;5073149;28;20044;-56
2021/05/18 01:58:08;;;;;;;18.65;11.90;;;8.90;92.40;;;;;;5081370;28;20044;-56
2021/05/18 02:00:37;;;;;;;17.55;11.48;;;8.90;92.30;;;;;;5057114;28;20047;-56
2021/05/18 02:03:03;;;;;;;19.33;12.32;;;8.90;92.30;;;;;;5054625;28;20453;-56
2021/05/18 02:05:36;;;;;;;20.73;12.02;;;8.80;92.30;;;;;;5076472;28;20059;-56
2021/05/18 02:08:05;;;;;;;19.05;12.35;;;8.80;92.40;;;;;;5079643;28;20055;-56
2021/05/18 02:10:31;;;;;;;16.75;11.45;;;8.80;92.40;;;;;;5074009;28;20051;-56
2021/05/18 02:12:57;;;;;;;16.80;11.63;;;8.70;92.30;;;;;;5060524;28;20062;-56
2021/05/18 02:26:28;;;;;;;14.90;10.07;;;8.50;92.50;;;;;;5074654;28;20064;-56
2021/05/18 02:28:54;;;;;;;20.63;11.77;;;8.60;92.50;;;;;;5017985;28;20075;-56
2021/05/18 02:31:21;;;;;;;16.90;11.52;;;8.60;92.50;;;;;;5064583;28;20068;-56
2021/05/18 02:33:51;;;;;;;19.65;11.27;;;8.50;92.50;;;;;;5072278;28;20072;-55
2021/05/18 02:36:18;;;;;;;15.77;11.10;;;8.50;92.50;;;;;;5070276;28;20036;-56
2021/05/18 02:38:44;;;;;;;20.35;11.40;;;8.50;92.50;;;;;;5070046;28;20481;-57
2021/05/18 02:41:11;;;;;;;20.02;11.25;;;8.40;92.50;;;;;;5076623;28;20036;-55
2021/05/18 02:43:51;;;;;;;18.05;12.15;;;8.40;92.60;;;;;;5061214;28;20032;-55
2021/05/18 02:51:35;;;;;;;25.92;13.50;;;8.40;92.70;;;;;;5060521;28;20048;-58
2021/05/18 02:54:01;;;;;;;20.33;11.68;;;8.40;92.70;;;;;;5053868;28;20439;-55
2021/05/18 02:56:32;;;;;;;20.25;12.70;;;8.30;92.80;;;;;;5067146;28;20036;-55
2021/05/18 03:01:33;;;;;;;20.48;11.77;;;8.30;92.70;;;;;;5077794;28;20036;-53
2021/05/18 03:03:59;;;;;;;20.40;12.35;;;8.30;92.70;;;;;;5073194;28;20427;-55
2021/05/18 03:06:24;;;;;;;19.00;12.52;;;8.30;92.70;;;;;;5069458;28;20590;-54
2021/05/18 03:08:51;;;;;;;16.10;10.93;;;8.30;92.80;;;;;;5068518;28;20435;-54
2021/05/18 03:11:17;;;;;;;20.85;11.48;;;8.30;92.80;;;;;;5070498;28;20044;-54
2021/05/18 03:13:43;;;;;;;17.60;11.05;;;8.30;92.90;;;;;;5078306;28;20052;-55
2021/05/18 03:16:09;;;;;;;18.83;11.57;;;8.30;92.90;;;;;;5071674;28;20044;-58
2021/05/18 03:18:35;;;;;;;20.38;11.55;;;8.30;92.90;;;;;;5053933;28;20037;-55
2021/05/18 03:21:02;;;;;;;18.13;12.40;;;8.30;92.90;;;;;;5054762;28;20096;-55
2021/05/18 03:23:28;;;;;;;12.77;8.35;;;8.20;92.80;;;;;;5080857;28;20047;-55
2021/05/18 03:25:54;;;;;;;15.18;9.40;;;8.20;92.70;;;;;;5061302;28;20440;-55
2021/05/18 03:28:21;;;;;;;19.38;10.85;;;8.20;92.90;;;;;;5081138;28;20408;-56
2021/05/18 03:35:58;;;;;;;20.60;10.55;;;8.10;92.80;;;;;;5069018;28;20048;-54
2021/05/18 03:38:28;;;;;;;15.30;9.35;;;8.10;92.80;;;;;;5062459;28;20036;-55
2021/05/18 03:40:58;;;;;;;14.68;9.63;;;8.00;92.70;;;;;;5074800;28;20048;-55
2021/05/18 03:54:25;;;;;;;24.70;12.98;;;8.00;92.80;;;;;;5053464;28;20033;-57
2021/05/18 04:10:09;;;;;;;26.73;13.35;;;8.10;93.00;;;;;;5070823;28;20037;-53
2021/05/18 04:11:19;;;;;;;26.90;13.77;;;8.10;93.00;;;;;;5045479;28;20052;-54
2021/05/18 04:21:43;;;;;;;23.45;13.48;;;8.20;93.10;;;;;;5075035;28;20114;-54
2021/05/18 04:24:43;;;;;;;19.67;12.75;;;8.20;93.10;;;;;;5022824;28;20052;-55
2021/05/18 04:52:17;;;;;;;24.42;12.90;;;8.60;93.40;;;;;;4996751;28;20069;-53
2021/05/18 05:00:19;;;;;;;25.38;14.00;;;9.00;93.50;;;;;;5065709;28;20078;-55
2021/05/18 05:16:00;;;;;;;29.73;15.60;;;9.60;93.50;;;;;;5074067;28;20092;-57
2021/05/18 05:18:26;;;;;;;28.65;15.35;;;9.80;93.50;;;;;;5054622;28;20111;-55
2021/05/18 05:20:52;;;;;;;29.00;15.30;;;9.80;93.40;;;;;;5074199;28;20049;-54
2021/05/18 05:23:18;;;;;;;27.00;15.15;;;9.90;93.40;;;;;;5056062;28;20062;-53
2021/05/18 05:25:44;;;;;;;29.38;15.60;;;9.90;93.40;;;;;;5056072;28;20041;-53
2021/05/18 05:28:10;;;;;;;29.48;16.20;;;10.00;93.30;;;;;;5039915;28;20048;-55
2021/05/18 05:30:37;;;;;;;32.75;16.40;;;10.00;93.30;;;;;;5053889;28;20045;-53
2021/05/18 05:33:03;;;;;;;30.35;15.77;;;10.10;93.30;;;;;;5039998;28;20094;-56
2021/05/18 05:35:29;;;;;;;28.88;17.27;;;10.20;93.30;;;;;;5075190;28;20041;-55
2021/05/18 05:37:57;;;;;;;24.25;15.38;;;10.30;93.10;;;;;;5073288;28;20040;-55
2021/05/18 05:40:23;;;;;;;27.50;16.10;;;10.40;93.20;;;;;;5070313;28;20154;-58
2021/05/18 05:42:49;;;;;;;30.58;15.63;;;10.50;93.00;;;;;;5049998;28;20048;-56
2021/05/18 05:45:15;;;;;;;30.92;14.88;;;10.50;93.10;;;;;;5070611;28;20109;-54
2021/05/18 05:47:41;;;;;;;31.10;14.50;;;10.60;93.00;;;;;;5048382;28;20040;-54
2021/05/18 05:50:08;;;;;;;28.58;15.18;;;10.60;93.00;;;;;;5072498;28;20037;-54
2021/05/18 05:52:34;;;;;;;32.05;14.88;;;10.70;92.90;;;;;;5067006;28;20075;-56
2021/05/18 05:55:00;;;;;;;27.17;14.77;;;10.70;92.80;;;;;;5071570;28;20040;-55
2021/05/18 05:57:26;;;;;;;28.60;15.73;;;10.70;92.90;;;;;;5073728;28;20108;-53
2021/05/18 05:59:52;;;;;;;27.38;13.90;;;10.70;92.80;;;;;;5067015;28;20044;-54
2021/05/18 06:02:17;;;;;;;27.42;14.50;;;10.70;92.70;;;;;;5075554;28;20076;-55
2021/05/18 06:04:43;;;;;;;25.83;14.32;;;10.70;92.80;;;;;;5069258;28;20047;-55
2021/05/18 06:07:09;;;;;;;27.30;15.20;;;10.60;92.80;;;;;;5080385;28;20062;-54
2021/05/18 06:09:36;;;;;;;28.48;14.98;;;10.60;92.90;;;;;;5073650;28;20071;-54
2021/05/18 06:12:18;;;;;;;27.92;15.05;;;10.60;93.10;;;;;;5055654;28;20056;-55
2021/05/18 06:47:03;;;;;;;31.48;16.52;;;10.70;93.50;;;;;;5069701;28;20044;-54
2021/05/18 06:49:33;;;;;;;31.55;16.98;;;10.70;93.50;;;;;;5073101;28;20487;-55
2021/05/18 06:51:58;;;;;;;30.10;15.90;;;10.80;93.60;;;;;;5071656;28;20041;-53
2021/05/18 06:54:24;;;;;;;26.42;15.15;;;10.90;93.50;;;;;;5072250;28;20154;-52
2021/05/18 06:56:52;;;;;;;29.33;15.95;;;10.90;93.40;;;;;;5081226;28;20135;-54
2021/05/18 07:01:44;;;;;;;32.22;16.92;;;11.00;93.50;;;;;;5075799;28;20048;-54
2021/05/18 07:04:11;;;;;;;29.42;15.80;;;11.10;93.40;;;;;;5065325;28;20041;-54
2021/05/18 07:09:12;;;;;;;27.65;15.13;;;11.20;93.40;;;;;;5072449;28;20416;-53
2021/05/18 07:11:38;;;;;;;30.92;15.15;;;11.30;93.20;;;;;;5083297;28;20788;-54
2021/05/18 07:14:04;;;;;;;25.15;15.73;;;11.30;93.20;;;;;;5090213;28;20109;-55
2021/05/18 07:16:30;;;;;;;24.05;14.90;;;11.40;93.00;;;;;;5074493;28;20508;-53
2021/05/18 07:18:56;;;;;;;24.63;15.85;;;11.40;93.00;;;;;;5069909;28;20114;-53
2021/05/18 07:21:22;;;;;;;23.65;14.93;;;11.40;92.80;;;;;;5069987;28;20124;-55
2021/05/18 07:23:48;;;;;;;25.05;14.50;;;11.50;92.70;;;;;;5072112;28;20045;-53
2021/05/18 07:26:14;;;;;;;29.35;15.75;;;11.50;92.50;;;;;;5070996;28;20044;-54
2021/05/18 07:28:40;;;;;;;24.20;14.02;;;11.60;92.60;;;;;;5070852;28;20036;-53
2021/05/18 07:31:06;;;;;;;17.52;12.95;;;11.70;92.40;;;;;;5071956;28;20488;-54
2021/05/18 07:33:32;;;;;;;18.65;13.10;;;11.70;92.00;;;;;;5072415;28;20049;-54
2021/05/18 07:36:00;;;;;;;21.10;12.18;;;11.70;91.80;;;;;;5071794;28;20052;-53
2021/05/18 07:38:27;;;;;;;17.88;10.80;;;11.70;91.60;;;;;;5073154;28;20044;-53
2021/05/18 07:40:54;;;;;;;17.60;11.50;;;11.70;91.50;;;;;;5071676;28;20043;-55
2021/05/18 07:43:20;;;;;;;20.85;13.38;;;11.70;90.80;;;;;;5065852;28;20043;-56
2021/05/18 07:45:54;;;;;;;22.48;13.05;;;11.70;91.00;;;;;;5042470;28;20135;-57
2021/05/18 08:07:30;;;;;;;19.55;13.75;;;12.00;90.40;;;;;;5063067;28;20436;-53
2021/05/18 08:10:04;;;;;;;20.00;13.10;;;12.10;90.60;;;;;;5063714;28;20040;-56
2021/05/18 08:12:30;;;;;;;18.90;12.50;;;12.20;90.60;;;;;;5064787;28;20140;-55
2021/05/18 08:18:17;;;;;;;16.27;11.25;;;12.30;90.40;;;;;;5049764;28;20044;-56
2021/05/18 08:20:50;;;;;;;17.10;11.00;;;12.40;90.10;;;;;;5057843;28;20055;-55
2021/05/18 10:34:36;;;;;;;12.93;8.43;;;13.60;79.20;;;;;;5065904;28;20036;-57
2021/05/18 10:37:30;;;;;;;10.85;8.35;;;13.70;78.20;;;;;;5065721;28;20234;-56
2021/05/18 10:40:24;;;;;;;11.82;8.55;;;13.90;78.00;;;;;;5064018;28;20047;-56
2021/05/18 10:43:29;;;;;;;8.73;7.03;;;13.90;78.00;;;;;;5068010;28;20128;-55
2021/05/18 10:45:59;;;;;;;10.75;7.60;;;13.80;77.70;;;;;;5066005;28;20042;-56
2021/05/18 10:48:53;;;;;;;10.05;7.05;;;13.80;78.50;;;;;;5068099;28;20496;-56
2021/05/18 10:51:44;;;;;;;24.25;6.47;;;13.70;78.20;;;;;;5067070;28;20036;-56
2021/05/18 10:54:30;;;;;;;7.57;4.40;;;13.40;77.10;;;;;;5066803;28;20029;-56
2021/05/18 10:57:02;;;;;;;6.88;4.18;;;13.30;76.60;;;;;;5049759;28;20037;-56
2021/05/18 10:59:41;;;;;;;4.22;2.60;;;13.10;77.40;;;;;;5062502;28;20045;-56
2021/05/18 11:02:16;;;;;;;4.45;2.85;;;13.00;76.10;;;;;;5063470;28;20037;-56
2021/05/18 11:04:44;;;;;;;6.07;3.28;;;12.90;77.70;;;;;;5064292;28;20032;-56
2021/05/18 11:07:12;;;;;;;6.85;3.45;;;12.90;79.00;;;;;;5067216;28;20036;-55
2021/05/18 11:09:39;;;;;;;5.43;3.33;;;13.00;78.70;;;;;;5066634;28;20964;-56
2021/05/18 11:12:11;;;;;;;4.50;3.40;;;13.00;79.20;;;;;;5069856;28;20910;-56
2021/05/18 11:14:57;;;;;;;5.72;4.20;;;13.00;79.40;;;;;;5067199;28;20086;-56
2021/05/18 11:17:26;;;;;;;7.85;4.78;;;13.00;79.90;;;;;;5068373;28;20041;-56
2021/05/18 11:25:50;;;;;;;6.85;4.80;;;12.90;81.10;;;;;;5067750;28;20170;-54
2021/05/18 11:28:35;;;;;;;7.45;4.25;;;13.00;81.60;;;;;;5067866;28;20047;-56
2021/05/18 11:31:07;;;;;;;6.80;4.75;;;13.20;81.80;;;;;;5067481;28;20053;-56
2021/05/18 11:33:34;;;;;;;9.73;4.80;;;13.50;80.70;;;;;;5067645;28;20055;-56
2021/05/18 11:36:13;;;;;;;7.63;4.68;;;13.80;79.40;;;;;;5064468;28;20072;-56
2021/05/18 11:38:40;;;;;;;7.43;4.35;;;14.10;77.70;;;;;;5066580;28;20071;-55
2021/05/18 11:41:06;;;;;;;7.95;5.10;;;14.40;77.00;;;;;;5068732;28;20051;-55
2021/05/18 11:43:40;;;;;;;8.30;5.53;;;14.70;73.80;;;;;;5065878;28;20052;-56
2021/05/18 11:46:11;;;;;;;8.23;5.00;;;14.80;72.20;;;;;;5067928;28;20037;-56
2021/05/18 11:48:41;;;;;;;8.70;5.27;;;15.00;73.90;;;;;;5065957;28;20511;-52
2021/05/18 11:51:14;;;;;;;6.35;4.93;;;15.20;72.80;;;;;;5069917;28;20086;-56
2021/05/18 11:53:44;;;;;;;7.35;5.78;;;15.30;71.70;;;;;;5063891;28;20052;-54
2021/05/18 11:56:26;;;;;;;11.18;5.75;;;15.50;71.20;;;;;;5067640;28;20696;-54
2021/05/18 11:59:24;;;;;;;9.13;5.53;;;15.70;69.40;;;;;;5064090;28;20877;-54
2021/05/18 12:01:56;;;;;;;6.95;5.65;;;15.70;71.60;;;;;;5065623;28;20044;-58
2021/05/18 12:04:24;;;;;;;7.78;5.72;;;15.70;71.50;;;;;;5047184;28;20049;-56
2021/05/18 12:07:04;;;;;;;7.45;5.63;;;15.70;71.20;;;;;;5048335;28;20045;-58
2021/05/18 12:09:32;;;;;;;8.38;5.32;;;15.80;68.10;;;;;;5064240;28;20045;-54
2021/05/18 12:12:09;;;;;;;6.75;5.10;;;15.90;69.10;;;;;;5067686;28;20036;-57
2021/05/18 12:14:46;;;;;;;6.82;5.22;;;16.00;70.20;;;;;;5063005;28;20052;-58
2021/05/18 12:17:13;;;;;;;7.32;5.20;;;16.20;69.90;;;;;;5066614;28;20044;-56
2021/05/18 12:19:39;;;;;;;7.57;5.22;;;16.20;69.20;;;;;;5066005;28;20510;-52
2021/05/18 12:22:06;;;;;;;8.25;5.78;;;16.40;69.00;;;;;;5068937;28;20093;-54
2021/05/18 12:24:39;;;;;;;8.82;5.47;;;16.50;68.50;;;;;;5066848;28;20516;-56
2021/05/18 12:27:06;;;;;;;8.07;5.10;;;16.60;66.40;;;;;;5068584;28;20033;-57
2021/05/18 12:29:40;;;;;;;6.60;4.85;;;16.60;65.60;;;;;;5069552;28;20041;-57
2021/05/18 12:32:20;;;;;;;5.68;4.70;;;16.70;65.90;;;;;;5046803;28;20025;-58
2021/05/18 12:34:47;;;;;;;7.93;5.65;;;16.70;65.40;;;;;;5064931;28;20041;-54
2021/05/18 12:37:14;;;;;;;7.57;4.82;;;16.80;66.00;;;;;;5046681;28;20052;-58
2021/05/18 12:39:43;;;;;;;5.88;4.30;;;16.90;65.00;;;;;;5067330;28;20746;-55
2021/05/18 12:42:13;;;;;;;7.20;4.82;;;16.80;63.60;;;;;;5066136;28;20508;-55
2021/05/18 12:44:53;;;;;;;5.43;4.32;;;16.60;64.60;;;;;;5065600;28;20059;-56
2021/05/18 12:47:35;;;;;;;6.57;3.92;;;16.40;65.80;;;;;;5067097;28;20077;-57
2021/05/18 12:50:10;;;;;;;6.40;3.83;;;16.50;65.90;;;;;;5067776;28;20044;-51
2021/05/18 12:52:38;;;;;;;5.55;4.43;;;16.60;63.70;;;;;;5072178;28;20412;-55
2021/05/18 12:55:24;;;;;;;7.32;4.43;;;16.60;63.50;;;;;;5061620;28;20044;-57
2021/05/18 12:58:03;;;;;;;8.25;5.15;;;16.80;65.30;;;;;;5066296;28;20041;-58
2021/05/18 13:00:40;;;;;;;7.70;4.50;;;17.00;64.50;;;;;;5065807;28;20040;-55
2021/05/18 13:03:21;;;;;;;6.47;4.65;;;17.00;63.80;;;;;;5034647;28;20413;-56
2021/05/18 13:05:54;;;;;;;5.85;4.10;;;17.00;63.00;;;;;;5045848;28;20119;-57
2021/05/18 13:08:31;;;;;;;7.22;4.10;;;16.90;60.90;;;;;;5066992;28;20037;-55
2021/05/18 13:13:44;;;;;;;6.20;4.40;;;16.80;63.20;;;;;;5069422;28;20040;-56
2021/05/18 13:16:19;;;;;;;7.05;4.93;;;16.80;60.90;;;;;;5027664;28;20045;-56
2021/05/18 13:19:25;;;;;;;7.20;5.10;;;16.90;62.00;;;;;;5054317;28;20044;-55
2021/05/18 13:22:06;;;;;;;7.18;5.45;;;16.80;61.40;;;;;;5067439;28;20589;-56
2021/05/18 13:27:25;;;;;;;5.95;4.03;;;16.30;63.30;;;;;;5025057;28;20052;-55
2021/05/18 13:29:51;;;;;;;7.20;4.50;;;16.30;63.50;;;;;;5069425;28;20055;-53
2021/05/18 13:32:19;;;;;;;8.05;5.40;;;16.60;64.50;;;;;;5051494;28;20451;-53
2021/05/18 13:34:57;;;;;;;8.25;5.65;;;16.80;63.30;;;;;;5053178;28;20055;-56
2021/05/18 13:37:33;;;;;;;8.57;5.20;;;17.00;63.40;;;;;;5069918;28;20400;-55
2021/05/18 13:39:59;;;;;;;13.95;5.30;;;17.10;62.40;;;;;;5019008;28;20063;-58
2021/05/18 13:42:25;;;;;;;10.35;5.80;;;17.20;61.80;;;;;;5039778;28;20037;-55
2021/05/18 13:44:51;;;;;;;6.93;5.07;;;17.10;60.10;;;;;;5069025;28;20891;-55
2021/05/18 13:47:16;;;;;;;8.00;5.40;;;16.90;60.00;;;;;;5048603;28;20717;-57
2021/05/18 13:49:43;;;;;;;6.78;5.38;;;16.60;61.10;;;;;;5065212;28;20063;-57
2021/05/18 13:52:14;;;;;;;;;;;16.50;61.20;;;;;;5050734;28;20459;-54
2021/05/18 13:54:40;;;;;;;12.13;6.60;;;16.40;60.50;;;;;;5068604;28;19924;-57
2021/05/18 13:57:06;;;;;;;8.68;5.90;;;16.30;63.00;;;;;;5051367;28;20052;-56
2021/05/18 13:59:33;;;;;;;8.63;4.97;;;16.10;63.80;;;;;;5069963;28;20052;-53
2021/05/18 14:01:58;;;;;;;6.63;5.22;;;16.00;63.70;;;;;;5051453;28;20417;-56
2021/05/18 14:04:24;;;;;;;9.45;5.47;;;15.90;63.90;;;;;;5067177;28;20032;-56
2021/05/18 14:07:31;;;;;;;7.95;5.25;;;15.80;64.10;;;;;;5069401;28;20048;-54
2021/05/18 14:09:56;;;;;;;9.38;5.95;;;15.60;63.50;;;;;;5067824;28;20394;-56
2021/05/18 14:12:22;;;;;;;7.93;6.10;;;15.50;65.10;;;;;;5070813;28;20055;-56
2021/05/18 14:14:48;;;;;;;7.38;5.82;;;15.40;66.60;;;;;;5069612;28;20523;-57
2021/05/18 14:17:13;;;;;;;9.85;6.47;;;15.40;66.40;;;;;;5067885;28;20046;-56
2021/05/18 14:19:39;;;;;;;8.90;6.55;;;15.30;66.30;;;;;;5068926;28;20455;-56
2021/05/18 14:22:06;;;;;;;10.13;7.18;;;15.20;66.90;;;;;;5068985;28;20040;-57
2021/05/18 14:25:14;;;;;;;11.13;6.80;;;15.20;67.50;;;;;;5035888;28;20090;-55
2021/05/18 14:27:21;;;;;;;10.90;6.70;;;15.10;67.80;;;;;;5060818;28;20761;-56
2021/05/18 14:29:48;;;;;;;12.27;7.13;;;15.10;69.50;;;;;;5070896;28;20056;-55
2021/05/18 14:32:14;;;;;;;9.57;6.50;;;15.20;70.10;;;;;;5067004;28;20066;-55
2021/05/18 14:34:42;;;;;;;9.15;6.30;;;15.20;69.80;;;;;;5065461;28;20080;-55
2021/05/18 14:37:09;;;;;;;8.88;6.10;;;15.20;67.80;;;;;;5048543;28;20044;-56
2021/05/18 14:45:05;;;;;;;7.70;5.13;;;15.30;68.90;;;;;;5066682;28;20049;-57
2021/05/18 14:47:40;;;;;;;7.57;4.10;;;15.40;69.40;;;;;;5067830;28;20127;-57
2021/05/18 14:55:39;;;;;;;3.75;1.75;;;16.20;62.80;;;;;;5051360;28;20078;-54
2021/05/18 14:58:04;;;;;;;3.20;1.63;;;16.30;60.50;;;;;;5068160;28;20036;-58
2021/05/18 15:00:30;;;;;;;4.88;2.40;;;16.40;59.00;;;;;;5068133;28;20051;-55
2021/05/18 15:02:55;;;;;;;4.18;2.78;;;16.50;58.90;;;;;;5003282;28;39787;-56
2021/05/18 15:05:22;;;;;;;4.03;2.80;;;16.40;58.30;;;;;;5026629;28;20397;-54
2021/05/18 15:07:49;;;;;;;5.50;2.78;;;16.20;59.00;;;;;;5066130;28;20048;-55
2021/05/18 15:10:15;;;;;;;5.32;2.63;;;16.00;58.70;;;;;;5063346;28;20102;-53
2021/05/18 15:12:41;;;;;;;2.60;2.00;;;15.80;59.50;;;;;;5067188;28;20446;-54
2021/05/18 15:15:07;;;;;;;3.80;2.20;;;15.70;59.20;;;;;;5023299;28;20139;-54
2021/05/18 15:17:33;;;;;;;4.78;2.63;;;15.50;60.50;;;;;;5067905;28;20045;-57
2021/05/18 15:19:59;;;;;;;4.53;3.20;;;15.30;62.50;;;;;;5066603;28;20041;-57
2021/05/18 15:22:31;;;;;;;5.47;3.50;;;15.10;64.40;;;;;;5069018;28;20068;-56
2021/05/18 15:24:56;;;;;;;4.65;2.90;;;15.10;65.30;;;;;;5047371;28;20476;-57
2021/05/18 15:27:25;;;;;;;5.35;2.90;;;14.80;65.10;;;;;;5065236;28;20101;-56
2021/05/18 15:29:52;;;;;;;5.18;3.03;;;14.60;65.50;;;;;;5046582;28;20125;-56
2021/05/18 15:32:18;;;;;;;7.07;2.60;;;14.40;68.70;;;;;;5064156;28;20113;-56
2021/05/18 15:34:44;;;;;;;3.67;2.55;;;14.10;69.20;;;;;;5064908;28;21231;-57
2021/05/18 15:37:10;;;;;;;3.55;2.17;;;14.10;71.20;;;;;;5064955;28;20044;-53
2021/05/18 15:39:36;;;;;;;2.42;1.85;;;14.00;72.70;;;;;;5046527;28;20045;-54
2021/05/18 15:42:03;;;;;;;3.33;2.20;;;14.20;73.20;;;;;;5047010;28;20052;-57
2021/05/18 15:44:28;;;;;;;3.25;2.10;;;14.40;74.00;;;;;;5067351;28;20040;-56
2021/05/18 15:46:54;;;;;;;2.08;1.70;;;14.50;73.60;;;;;;5064856;28;20531;-55
2021/05/18 15:49:20;;;;;;;3.10;2.40;;;14.70;74.50;;;;;;5027264;28;20045;-57
2021/05/18 15:51:46;;;;;;;3.28;2.40;;;14.80;72.70;;;;;;5065143;28;20102;-56
2021/05/18 15:54:11;;;;;;;4.75;3.30;;;15.00;71.80;;;;;;5066774;28;20051;-57
2021/05/18 15:56:38;;;;;;;5.43;3.85;;;15.10;70.70;;;;;;5063973;28;20040;-57
2021/05/18 15:59:04;;;;;;;6.70;4.90;;;15.20;70.90;;;;;;5066162;28;20036;-57
2021/05/18 16:01:30;;;;;;;11.82;6.90;;;15.30;71.60;;;;;;5066315;28;20059;-56
2021/05/18 16:03:56;;;;;;;11.43;7.78;;;15.50;71.80;;;;;;5046108;28;20036;-56
2021/05/18 16:06:22;;;;;;;10.63;7.93;;;15.50;71.90;;;;;;5064295;28;20043;-57
2021/05/18 16:11:15;;;;;;;11.23;8.70;;;15.30;71.70;;;;;;5061161;28;20075;-56
2021/05/18 16:13:41;;;;;;;10.75;8.80;;;15.10;71.90;;;;;;5046269;28;20060;-56
2021/05/18 16:16:15;;;;;;;13.02;9.45;;;14.80;72.60;;;;;;5061090;28;20374;-56
2021/05/18 16:18:41;;;;;;;12.02;8.95;;;14.70;73.30;;;;;;5062940;28;20484;-56
2021/05/18 16:21:08;;;;;;;13.50;10.35;;;14.60;74.10;;;;;;5063132;28;20140;-56
2021/05/18 16:23:37;;;;;;;13.23;10.75;;;14.60;74.70;;;;;;5065362;28;20039;-55
2021/05/18 16:26:05;;;;;;;15.40;10.98;;;14.70;74.70;;;;;;5044702;28;20044;-56
2021/05/18 16:28:32;;;;;;;13.60;10.88;;;14.70;75.20;;;;;;5063418;28;20074;-55
2021/05/18 16:30:58;;;;;;;16.10;11.35;;;14.80;75.20;;;;;;5061840;28;20052;-56
2021/05/18 16:33:26;;;;;;;17.38;11.10;;;14.90;75.20;;;;;;5063765;28;20056;-57
2021/05/18 16:35:52;;;;;;;13.50;9.95;;;14.90;74.60;;;;;;5070197;28;20045;-54
2021/05/18 16:38:17;;;;;;;13.02;9.88;;;15.10;73.90;;;;;;5070296;28;20049;-51
2021/05/18 16:40:43;;;;;;;12.95;9.80;;;15.10;73.50;;;;;;5068724;28;20075;-54
2021/05/18 16:43:09;;;;;;;12.00;9.40;;;15.20;73.00;;;;;;5067739;28;20037;-54
2021/05/18 16:45:35;;;;;;;13.07;9.82;;;15.20;72.00;;;;;;5067791;28;20028;-54
2021/05/18 16:48:03;;;;;;;13.50;10.52;;;15.20;72.10;;;;;;5068949;28;20040;-53
2021/05/18 16:50:29;;;;;;;14.00;10.32;;;15.20;72.60;;;;;;5065617;28;20538;-53
2021/05/18 16:52:55;;;;;;;16.30;10.57;;;15.20;72.70;;;;;;5050599;28;20044;-53
2021/05/18 16:55:21;;;;;;;12.65;9.30;;;15.20;72.10;;;;;;5068227;28;20052;-51
2021/05/18 16:57:46;;;;;;;11.27;9.02;;;15.30;70.90;;;;;;5070703;28;20468;-55
2021/05/18 17:00:15;;;;;;;13.25;9.77;;;15.20;71.00;;;;;;5069540;28;20048;-51
2021/05/18 17:02:41;;;;;;;11.27;9.20;;;15.10;71.10;;;;;;5072684;28;20064;-52
2021/05/18 17:05:08;;;;;;;13.57;9.13;;;15.00;72.20;;;;;;5068531;28;20071;-55
2021/05/18 17:07:35;;;;;;;13.25;8.63;;;14.90;72.60;;;;;;5070278;28;20043;-52
2021/05/18 17:10:03;;;;;;;9.20;7.00;;;14.80;72.40;;;;;;5069979;28;20040;-55
2021/05/18 17:12:29;;;;;;;9.50;6.05;;;14.90;70.60;;;;;;5067757;28;20040;-53
2021/05/18 17:14:54;;;;;;;8.02;5.93;;;15.00;69.90;;;;;;5065421;28;20493;-54
2021/05/18 17:17:20;;;;;;;8.07;5.72;;;15.10;70.10;;;;;;5044486;28;20048;-51
2021/05/18 17:19:46;;;;;;;10.15;6.63;;;15.20;69.70;;;;;;5068336;28;20386;-55
2021/05/18 17:22:14;;;;;;;10.02;7.38;;;15.20;69.80;;;;;;5069199;28;20040;-51
2021/05/18 17:24:40;;;;;;;8.45;6.85;;;15.20;70.50;;;;;;5048677;28;20136;-52
2021/05/18 17:27:05;;;;;;;9.48;6.57;;;15.20;69.60;;;;;;5069171;28;20615;-51
2021/05/18 17:29:33;;;;;;;8.45;6.55;;;15.20;69.70;;;;;;5074422;28;20485;-55
2021/05/18 17:31:59;;;;;;;8.05;5.63;;;15.10;70.00;;;;;;5070305;28;20067;-51
2021/05/18 17:34:25;;;;;;;8.05;5.38;;;15.00;70.10;;;;;;5070456;28;20037;-57
2021/05/18 17:36:52;;;;;;;7.47;5.43;;;14.90;70.60;;;;;;5073467;28;20447;-56
2021/05/18 17:39:20;;;;;;;7.07;5.10;;;14.80;71.50;;;;;;5059153;28;20041;-55
2021/05/18 17:41:47;;;;;;;9.02;4.68;;;14.80;72.10;;;;;;5070880;28;20067;-54
2021/05/18 17:44:13;;;;;;;7.65;4.22;;;14.70;72.90;;;;;;5053586;28;20397;-56
2021/05/18 17:46:41;;;;;;;6.50;4.30;;;14.70;71.50;;;;;;5072324;28;20033;-54
2021/05/18 17:49:08;;;;;;;5.90;4.22;;;14.60;71.20;;;;;;5073453;28;20037;-54
2021/05/18 17:51:35;;;;;;;6.35;4.03;;;14.50;71.20;;;;;;5054059;28;20047;-54
2021/05/18 17:54:04;;;;;;;6.22;4.13;;;14.50;72.00;;;;;;5070941;28;20036;-55
2021/05/18 17:56:30;;;;;;;7.65;4.40;;;14.40;72.50;;;;;;5072175;28;20115;-56
2021/05/18 17:58:58;;;;;;;6.68;4.53;;;14.30;73.10;;;;;;5056715;28;20098;-56
2021/05/18 18:01:23;;;;;;;6.32;3.97;;;14.30;73.70;;;;;;5074984;28;20036;-56
2021/05/18 18:03:50;;;;;;;6.72;4.28;;;14.20;74.30;;;;;;5004424;28;20120;-56
2021/05/18 18:06:16;;;;;;;6.15;4.25;;;14.10;74.40;;;;;;5035790;28;20044;-57
2021/05/18 18:08:43;;;;;;;6.63;4.32;;;14.10;74.70;;;;;;5072011;28;20047;-57
2021/05/18 18:11:10;;;;;;;6.22;4.40;;;14.10;74.60;;;;;;5040051;28;20043;-57
2021/05/18 18:13:36;;;;;;;5.65;3.28;;;14.00;74.70;;;;;;5075107;28;20036;-57
2021/05/18 18:16:07;;;;;;;4.35;2.88;;;14.00;73.90;;;;;;5069643;28;20107;-54